createdAt,value
2023-03-25T00:00:24.616Z,9.90
2023-03-25T00:01:00.274Z,8.90
2023-03-25T00:01:32.922Z,8.90
2023-03-25T00:02:05.593Z,8.90
2023-03-25T00:02:37.899Z,9.00
2023-03-25T00:03:43.356Z,8.90
2023-03-25T00:04:17.616Z,9.70
2023-03-25T00:04:53.751Z,11.10
2023-03-25T00:05:26.466Z,8.80
2023-03-25T00:05:58.268Z,8.80
2023-03-25T00:06:34.207Z,8.80
2023-03-25T00:07:06.272Z,8.80
2023-03-25T00:07:38.352Z,8.80
2023-03-25T00:08:10.737Z,10.10
2023-03-25T00:08:42.620Z,8.80
2023-03-25T00:09:14.422Z,8.80
2023-03-25T00:09:47.824Z,8.80
2023-03-25T00:10:20.314Z,8.80
2023-03-25T00:10:56.941Z,11.90
2023-03-25T00:11:29.025Z,8.80
2023-03-25T00:12:00.864Z,8.80
2023-03-25T00:12:32.569Z,10.90
2023-03-25T00:13:05.851Z,8.90
2023-03-25T00:13:37.610Z,9.80
2023-03-25T00:14:09.686Z,10.50
2023-03-25T00:14:54.057Z,11.30
2023-03-25T00:15:25.850Z,8.90
2023-03-25T00:15:58.362Z,8.80
2023-03-25T00:16:30.398Z,11.30
2023-03-25T00:17:02.185Z,8.90
2023-03-25T00:17:36.706Z,9.20
2023-03-25T00:18:08.795Z,8.80
2023-03-25T00:18:40.601Z,8.80
2023-03-25T00:19:13.739Z,8.80
2023-03-25T00:19:45.479Z,9.00
2023-03-25T00:20:18.293Z,8.80
2023-03-25T00:20:50.902Z,8.80
2023-03-25T00:21:23.357Z,8.80
2023-03-25T00:21:55.703Z,10.70
2023-03-25T00:22:27.600Z,9.30
2023-03-25T00:22:59.419Z,8.90
2023-03-25T00:23:32.365Z,8.80
2023-03-25T00:24:04.247Z,8.80
2023-03-25T00:24:35.992Z,8.80
2023-03-25T00:25:16.463Z,9.80
2023-03-25T00:25:49.750Z,8.80
2023-03-25T00:26:21.799Z,8.80
2023-03-25T00:26:54.287Z,9.70
2023-03-25T00:27:26.029Z,8.80
2023-03-25T00:27:57.819Z,8.80
2023-03-25T00:28:32.663Z,10.00
2023-03-25T00:29:04.463Z,9.80
2023-03-25T00:29:36.185Z,9.40
2023-03-25T00:30:09.246Z,8.80
2023-03-25T00:30:42.539Z,8.80
2023-03-25T00:31:15.585Z,8.80
2023-03-25T00:31:47.601Z,8.80
2023-03-25T00:32:20.924Z,8.80
2023-03-25T00:32:52.954Z,8.80
2023-03-25T00:33:25.079Z,8.80
2023-03-25T00:33:57.994Z,9.90
2023-03-25T00:34:29.775Z,10.50
2023-03-25T00:35:01.508Z,9.90
2023-03-25T00:35:33.271Z,8.80
2023-03-25T00:36:05.753Z,9.60
2023-03-25T00:36:37.687Z,8.80
2023-03-25T00:37:09.811Z,8.80
2023-03-25T00:37:43.478Z,9.70
2023-03-25T00:38:15.411Z,9.20
2023-03-25T00:38:49.137Z,9.60
2023-03-25T00:39:21.052Z,8.80
2023-03-25T00:39:52.866Z,8.80
2023-03-25T00:40:25.887Z,8.80
2023-03-25T00:41:29.924Z,8.80
2023-03-25T00:42:02.471Z,8.70
2023-03-25T00:42:34.947Z,8.70
2023-03-25T00:43:07.397Z,8.70
2023-03-25T00:43:39.642Z,10.70
2023-03-25T00:44:17.080Z,10.70
2023-03-25T00:44:49.142Z,10.40
2023-03-25T00:45:21.013Z,8.70
2023-03-25T00:45:56.421Z,10.90
2023-03-25T00:46:31.547Z,8.70
2023-03-25T00:47:03.445Z,9.60
2023-03-25T00:47:35.353Z,8.70
2023-03-25T00:48:07.184Z,8.80
2023-03-25T00:48:39.247Z,8.80
2023-03-25T00:49:12.153Z,8.70
2023-03-25T00:49:44.324Z,8.70
2023-03-25T00:50:16.225Z,10.10
2023-03-25T00:50:48.789Z,8.70
2023-03-25T00:51:22.038Z,8.60
2023-03-25T00:51:54.419Z,10.50
2023-03-25T00:52:26.219Z,12.00
2023-03-25T00:52:58.181Z,8.70
2023-03-25T00:53:29.932Z,8.70
2023-03-25T00:54:02.050Z,8.70
2023-03-25T00:54:34.282Z,8.70
2023-03-25T00:55:07.602Z,8.70
2023-03-25T00:56:12.300Z,8.70
2023-03-25T00:56:44.622Z,10.50
2023-03-25T00:57:17.578Z,9.10
2023-03-25T00:57:49.499Z,9.40
2023-03-25T00:58:21.257Z,8.70
2023-03-25T00:58:53.147Z,8.70
2023-03-25T00:59:24.917Z,10.40
2023-03-25T00:59:56.816Z,8.70
2023-03-25T01:00:28.649Z,11.90
2023-03-25T01:01:00.831Z,8.70
2023-03-25T01:01:33.190Z,5.00
2023-03-25T01:02:06.799Z,8.70
2023-03-25T01:02:41.855Z,8.70
2023-03-25T01:03:13.890Z,9.30
2023-03-25T01:03:45.740Z,9.00
2023-03-25T01:04:19.477Z,8.60
2023-03-25T01:04:51.932Z,8.60
2023-03-25T01:05:24.120Z,8.70
2023-03-25T01:05:57.846Z,8.70
2023-03-25T01:06:34.751Z,10.60
2023-03-25T01:07:06.562Z,8.70
2023-03-25T01:07:39.970Z,8.60
2023-03-25T01:08:14.766Z,8.70
2023-03-25T01:08:47.142Z,8.60
2023-03-25T01:09:20.722Z,8.60
2023-03-25T01:09:52.468Z,8.60
2023-03-25T01:10:24.577Z,11.60
2023-03-25T01:10:57.094Z,8.70
2023-03-25T01:11:34.676Z,8.60
2023-03-25T01:12:06.515Z,10.10
2023-03-25T01:12:38.820Z,8.60
2023-03-25T01:13:10.745Z,8.60
2023-03-25T01:13:42.505Z,8.60
2023-03-25T01:14:18.033Z,9.70
2023-03-25T01:15:22.051Z,8.60
2023-03-25T01:15:54.251Z,8.60
2023-03-25T01:16:27.537Z,10.50
2023-03-25T01:17:00.494Z,8.60
2023-03-25T01:17:35.007Z,9.90
2023-03-25T01:18:07.775Z,8.60
2023-03-25T01:18:41.216Z,8.60
2023-03-25T01:19:14.692Z,8.60
2023-03-25T01:19:46.623Z,8.60
2023-03-25T01:20:18.953Z,8.60
2023-03-25T01:20:52.000Z,8.60
2023-03-25T01:21:24.267Z,11.40
2023-03-25T01:21:56.160Z,8.60
2023-03-25T01:22:28.112Z,12.10
2023-03-25T01:22:59.837Z,8.60
2023-03-25T01:23:31.923Z,12.00
2023-03-25T01:24:04.890Z,8.60
2023-03-25T01:24:36.706Z,8.60
2023-03-25T01:25:08.739Z,8.60
2023-03-25T01:25:40.462Z,8.60
2023-03-25T01:26:13.263Z,8.60
2023-03-25T01:26:45.965Z,8.70
2023-03-25T01:27:17.911Z,8.60
2023-03-25T01:27:49.674Z,8.50
2023-03-25T01:28:21.376Z,9.40
2023-03-25T01:28:54.024Z,8.60
2023-03-25T01:29:25.812Z,8.60
2023-03-25T01:29:58.144Z,8.60
2023-03-25T01:30:29.903Z,8.60
2023-03-25T01:31:04.037Z,8.60
2023-03-25T01:31:36.021Z,8.60
2023-03-25T01:32:08.744Z,9.40
2023-03-25T01:32:40.755Z,9.20
2023-03-25T01:33:12.544Z,12.00
2023-03-25T01:33:44.415Z,9.00
2023-03-25T01:34:17.108Z,8.60
2023-03-25T01:34:48.876Z,8.70
2023-03-25T01:35:20.681Z,8.60
2023-03-25T01:35:52.655Z,8.80
2023-03-25T01:36:25.705Z,8.60
2023-03-25T01:37:34.043Z,8.60
2023-03-25T01:38:05.955Z,8.60
2023-03-25T01:38:38.153Z,8.60
2023-03-25T01:39:10.753Z,8.60
2023-03-25T01:39:42.493Z,8.60
2023-03-25T01:40:23.760Z,8.60
2023-03-25T01:40:56.029Z,8.70
2023-03-25T01:41:39.086Z,8.60
2023-03-25T01:42:18.613Z,8.60
2023-03-25T01:42:50.596Z,8.60
2023-03-25T01:43:23.543Z,8.60
2023-03-25T01:44:33.598Z,8.60
2023-03-25T01:45:21.625Z,8.60
2023-03-25T01:45:53.516Z,8.60
2023-03-25T01:46:25.894Z,9.20
2023-03-25T01:47:03.743Z,8.60
2023-03-25T01:47:35.810Z,8.60
2023-03-25T01:48:23.539Z,8.70
2023-03-25T01:48:56.813Z,8.60
2023-03-25T01:49:38.812Z,8.70
2023-03-25T01:50:14.993Z,8.60
2023-03-25T01:51:05.123Z,8.60
2023-03-25T01:51:40.626Z,8.70
2023-03-25T01:52:16.711Z,8.60
2023-03-25T01:52:52.056Z,8.60
2023-03-25T01:53:27.754Z,8.70
2023-03-25T01:54:00.722Z,8.60
2023-03-25T01:54:33.562Z,9.50
2023-03-25T01:55:06.028Z,8.70
2023-03-25T01:55:40.064Z,8.60
2023-03-25T01:56:17.355Z,8.60
2023-03-25T01:56:52.041Z,10.70
2023-03-25T01:57:25.785Z,8.60
2023-03-25T01:58:33.308Z,8.60
2023-03-25T01:59:39.791Z,8.70
2023-03-25T02:00:15.624Z,8.70
2023-03-25T02:01:26.596Z,8.70
2023-03-25T02:02:02.678Z,8.70
2023-03-25T02:02:40.202Z,8.60
2023-03-25T02:03:13.975Z,8.60
2023-03-25T02:03:46.120Z,8.60
2023-03-25T02:04:39.487Z,8.70
2023-03-25T02:05:21.584Z,8.70
2023-03-25T02:06:05.880Z,8.60
2023-03-25T02:06:57.240Z,8.60
2023-03-25T02:07:32.892Z,8.60
2023-03-25T02:08:09.122Z,8.60
2023-03-25T02:08:41.859Z,8.70
2023-03-25T02:09:17.239Z,8.70
2023-03-25T02:09:49.677Z,8.60
2023-03-25T02:10:22.150Z,8.60
2023-03-25T02:10:55.193Z,8.60
2023-03-25T02:11:29.407Z,8.60
2023-03-25T02:12:01.376Z,8.50
2023-03-25T02:12:33.267Z,8.60
2023-03-25T02:13:07.408Z,8.60
2023-03-25T02:14:17.692Z,8.60
2023-03-25T02:14:49.618Z,8.70
2023-03-25T02:15:21.666Z,8.70
2023-03-25T02:16:08.249Z,8.70
2023-03-25T02:17:09.212Z,8.70
2023-03-25T02:18:01.150Z,8.70
2023-03-25T02:19:42.156Z,8.60
2023-03-25T02:20:34.691Z,8.60
2023-03-25T02:22:11.664Z,8.60
2023-03-25T02:24:04.436Z,8.60
2023-03-25T02:25:01.982Z,8.60
2023-03-25T02:26:25.065Z,8.60
2023-03-25T02:27:14.411Z,8.60
2023-03-25T02:28:01.257Z,8.50
2023-03-25T02:28:52.939Z,8.60
2023-03-25T02:29:49.438Z,8.60
2023-03-25T02:31:00.948Z,8.60
2023-03-25T02:31:51.729Z,8.60
2023-03-25T12:32:38.901Z,12.00
2023-03-25T12:33:32.462Z,12.10
2023-03-25T12:35:14.578Z,12.00
2023-03-25T12:36:24.847Z,11.90
2023-03-25T12:37:14.817Z,11.90
2023-03-25T12:39:14.927Z,11.90
2023-03-25T12:39:58.816Z,11.80
2023-03-25T12:40:36.676Z,11.90
2023-03-25T12:41:23.089Z,12.00
2023-03-25T12:42:26.890Z,12.00
2023-03-25T12:43:10.766Z,12.00
2023-03-25T12:44:14.234Z,12.00
2023-03-25T12:46:02.332Z,12.10
2023-03-25T12:46:46.186Z,12.10
2023-03-25T12:48:55.062Z,12.20
2023-03-25T12:49:56.012Z,12.20
2023-03-25T12:50:39.195Z,12.20
2023-03-25T12:51:45.594Z,12.20
2023-03-25T12:52:43.370Z,12.20
2023-03-25T12:53:31.671Z,12.20
2023-03-25T12:54:12.164Z,12.20
2023-03-25T12:54:52.880Z,12.20
2023-03-25T12:55:36.624Z,12.20
2023-03-25T12:56:36.850Z,12.20
2023-03-25T12:57:38.032Z,12.20
2023-03-25T12:58:25.325Z,12.30
2023-03-25T13:00:15.979Z,12.30
2023-03-25T13:01:08.510Z,12.30
2023-03-25T13:02:17.786Z,12.30
2023-03-25T13:03:19.290Z,12.30
2023-03-25T13:04:18.619Z,10.10
2023-03-25T13:05:08.357Z,12.40
2023-03-25T13:06:08.568Z,12.40
2023-03-25T13:07:17.770Z,12.40
2023-03-25T13:08:24.256Z,12.40
2023-03-25T13:09:04.560Z,12.40
2023-03-25T13:09:52.210Z,15.70
2023-03-25T13:10:32.523Z,12.40
2023-03-25T13:11:16.750Z,11.70
2023-03-25T13:11:53.152Z,12.40
2023-03-25T13:12:51.447Z,12.40
2023-03-25T13:13:25.701Z,12.40
2023-03-25T13:14:05.502Z,12.50
2023-03-25T13:14:52.773Z,11.70
2023-03-25T13:15:36.086Z,12.50
2023-03-25T13:16:15.082Z,12.50
2023-03-25T13:16:50.965Z,12.60
2023-03-25T13:17:34.781Z,12.50
2023-03-25T13:18:15.814Z,12.50
2023-03-25T13:19:01.698Z,12.60
2023-03-25T13:19:39.254Z,12.60
2023-03-25T13:20:11.404Z,13.70
2023-03-25T13:21:04.883Z,12.60
2023-03-25T13:21:46.376Z,12.60
2023-03-25T13:22:32.019Z,12.60
2023-03-25T13:23:07.769Z,13.30
2023-03-25T13:23:42.276Z,13.80
2023-03-25T13:24:22.292Z,12.60
2023-03-25T13:25:02.239Z,13.80
2023-03-25T13:25:53.166Z,13.30
2023-03-25T13:26:29.423Z,12.70
2023-03-25T13:27:04.523Z,12.70
2023-03-25T13:27:41.615Z,12.70
2023-03-25T13:28:20.142Z,13.90
2023-03-25T13:29:05.465Z,12.80
2023-03-25T13:29:44.382Z,12.70
2023-03-25T13:30:32.661Z,13.20
2023-03-25T13:31:14.588Z,12.80
2023-03-25T13:31:48.647Z,12.80
2023-03-25T13:32:36.652Z,13.80
2023-03-25T13:33:19.049Z,12.90
2023-03-25T13:34:17.283Z,12.80
2023-03-25T13:34:57.303Z,12.90
2023-03-25T13:35:42.895Z,12.90
2023-03-25T13:36:25.983Z,12.80
2023-03-25T13:37:19.755Z,14.10
2023-03-25T13:38:01.163Z,13.40
2023-03-25T13:38:40.459Z,13.00
2023-03-25T13:39:25.295Z,12.90
2023-03-25T13:40:30.266Z,13.80
2023-03-25T13:41:27.962Z,13.00
2023-03-25T13:42:15.600Z,12.90
2023-03-25T13:43:01.881Z,13.00
2023-03-25T13:43:57.045Z,13.00
2023-03-25T13:44:38.156Z,13.00
2023-03-25T13:45:19.880Z,13.00
2023-03-25T13:46:08.231Z,13.00
2023-03-25T13:47:08.805Z,13.00
2023-03-25T13:47:48.670Z,13.00
2023-03-25T13:48:24.095Z,13.00
2023-03-25T13:49:21.235Z,13.00
2023-03-25T13:50:08.400Z,13.00
2023-03-25T13:50:40.395Z,13.00
2023-03-25T13:51:12.131Z,13.00
2023-03-25T13:51:44.078Z,13.30
2023-03-25T13:52:16.745Z,14.50
2023-03-25T13:52:56.746Z,14.20
2023-03-25T13:53:36.055Z,13.10
2023-03-25T13:54:23.026Z,13.10
2023-03-25T13:55:01.869Z,13.10
2023-03-25T13:55:47.005Z,13.10
2023-03-25T13:56:27.554Z,13.10
2023-03-25T13:57:11.280Z,13.10
2023-03-25T13:58:09.097Z,13.10
2023-03-25T13:58:55.996Z,13.10
2023-03-25T13:59:56.823Z,13.20
2023-03-25T14:00:31.570Z,13.20
2023-03-25T14:01:22.081Z,13.20
2023-03-25T14:02:15.002Z,13.20
2023-03-25T14:03:01.801Z,13.20
2023-03-25T14:04:08.201Z,13.20
2023-03-25T14:05:16.859Z,13.20
2023-03-25T14:06:09.742Z,13.20
2023-03-25T14:06:44.602Z,13.20
2023-03-25T14:07:24.865Z,13.20
2023-03-25T14:08:02.605Z,14.20
2023-03-25T14:09:05.580Z,13.30
2023-03-25T14:10:00.529Z,13.20
2023-03-25T14:10:53.340Z,13.30
2023-03-25T14:11:48.352Z,13.30
2023-03-25T14:12:29.949Z,14.10
2023-03-25T14:13:07.201Z,13.30
2023-03-25T14:13:47.152Z,13.80
2023-03-25T14:14:22.696Z,13.30
2023-03-25T14:15:07.844Z,13.30
2023-03-25T14:15:46.367Z,13.30
2023-03-25T14:16:23.190Z,14.30
2023-03-25T14:16:59.623Z,13.30
2023-03-25T14:17:35.626Z,14.20
2023-03-25T14:18:17.719Z,14.50
2023-03-25T14:18:54.740Z,15.50
2023-03-25T14:19:37.392Z,15.50
2023-03-25T14:20:12.440Z,13.40
2023-03-25T14:20:45.085Z,13.40
2023-03-25T14:21:32.668Z,13.40
2023-03-25T14:22:27.146Z,13.40
2023-03-25T14:23:04.825Z,13.40
2023-03-25T14:23:36.664Z,14.40
2023-03-25T14:24:18.160Z,14.30
2023-03-25T14:24:51.470Z,13.40
2023-03-25T14:25:38.908Z,13.40
2023-03-25T14:26:11.016Z,13.70
2023-03-25T14:26:57.801Z,13.40
2023-03-25T14:27:34.511Z,13.50
2023-03-25T14:28:12.253Z,13.40
2023-03-25T14:28:47.654Z,14.20
2023-03-25T14:29:28.482Z,14.30
2023-03-25T14:30:22.552Z,13.40
2023-03-25T14:31:08.119Z,13.40
2023-03-25T14:31:40.050Z,13.50
2023-03-25T14:32:18.318Z,13.50
2023-03-25T14:32:51.845Z,14.00
2023-03-25T14:33:24.420Z,13.50
2023-03-25T14:34:02.370Z,13.50
2023-03-25T14:34:34.211Z,13.50
2023-03-25T14:35:33.983Z,14.80
2023-03-25T14:36:06.325Z,13.50
2023-03-25T14:36:38.602Z,12.40
2023-03-25T14:37:26.020Z,13.90
2023-03-25T14:38:07.484Z,13.50
2023-03-25T14:39:19.269Z,14.40
2023-03-25T14:39:51.858Z,13.50
2023-03-25T14:40:55.446Z,15.00
2023-03-25T14:41:58.641Z,14.10
2023-03-25T14:42:59.322Z,13.60
2023-03-25T14:43:53.043Z,13.60
2023-03-25T14:44:29.121Z,13.60
2023-03-25T14:45:32.265Z,13.50
2023-03-25T14:46:19.176Z,13.60
2023-03-25T14:47:02.228Z,13.60
2023-03-25T14:47:35.640Z,13.70
2023-03-25T14:48:25.822Z,13.60
2023-03-25T14:49:03.989Z,14.10
2023-03-25T14:50:13.602Z,14.40
2023-03-25T14:50:46.369Z,13.60
2023-03-25T14:51:27.397Z,13.60
2023-03-25T14:51:59.484Z,13.60
2023-03-25T14:52:52.777Z,14.20
2023-03-25T14:53:27.322Z,13.70
2023-03-25T14:54:31.647Z,13.60
2023-03-25T14:55:19.378Z,13.60
2023-03-25T14:55:52.008Z,13.70
2023-03-25T14:56:31.605Z,13.80
2023-03-25T14:57:14.703Z,14.70
2023-03-25T14:57:48.256Z,13.70
2023-03-25T14:58:29.027Z,14.20
2023-03-25T14:59:21.166Z,14.10
2023-03-25T15:00:03.731Z,13.70
2023-03-25T15:00:42.677Z,14.80
2023-03-25T15:01:20.077Z,13.70
2023-03-25T15:01:52.962Z,13.70
2023-03-25T15:02:28.830Z,14.90
2023-03-25T15:03:12.498Z,12.60
2023-03-25T15:03:45.637Z,13.70
2023-03-25T15:04:37.720Z,14.60
2023-03-25T15:05:18.427Z,14.70
2023-03-25T15:05:59.513Z,13.70
2023-03-25T15:06:34.737Z,13.70
2023-03-25T15:07:12.818Z,13.70
2023-03-25T15:08:11.653Z,14.70
2023-03-25T15:08:53.887Z,13.70
2023-03-25T15:09:27.533Z,14.50
2023-03-25T15:09:59.421Z,13.70
2023-03-25T15:10:45.033Z,15.30
2023-03-25T15:11:28.300Z,13.70
2023-03-25T15:12:03.580Z,13.70
2023-03-25T15:12:38.861Z,13.70
2023-03-25T15:13:21.714Z,14.70
2023-03-25T15:13:59.613Z,13.70
2023-03-25T15:14:36.512Z,13.80
2023-03-25T15:15:30.390Z,14.40
2023-03-25T15:16:17.968Z,14.20
2023-03-25T15:16:49.787Z,13.70
2023-03-25T15:17:46.341Z,14.80
2023-03-25T15:18:36.218Z,13.70
2023-03-25T15:19:12.184Z,14.70
2023-03-25T15:20:12.009Z,14.70
2023-03-25T15:20:43.865Z,13.70
2023-03-25T15:21:16.546Z,13.70
2023-03-25T15:21:57.426Z,14.00
2023-03-25T15:22:29.271Z,13.70
2023-03-25T15:23:19.109Z,13.70
2023-03-25T15:24:12.401Z,14.10
2023-03-25T15:24:52.820Z,13.90
2023-03-25T15:25:24.758Z,13.80
2023-03-25T15:25:58.454Z,14.40
2023-03-25T15:26:34.634Z,13.70
2023-03-25T15:27:25.108Z,13.70
2023-03-25T15:27:56.861Z,13.70
2023-03-25T15:28:53.031Z,14.30
2023-03-25T15:29:38.439Z,13.70
2023-03-25T15:30:31.368Z,13.70
2023-03-25T15:31:26.185Z,13.70
2023-03-25T15:32:26.120Z,14.20
2023-03-25T15:33:33.688Z,13.70
2023-03-25T15:34:18.462Z,13.70
2023-03-25T15:35:14.572Z,13.70
2023-03-25T15:36:09.276Z,15.10
2023-03-25T15:36:59.644Z,13.70
2023-03-25T15:37:56.386Z,13.80
2023-03-25T15:38:41.516Z,13.70
2023-03-25T15:39:25.046Z,13.70
2023-03-25T15:40:08.821Z,13.70
2023-03-25T15:40:58.768Z,13.70
2023-03-25T15:42:09.557Z,13.70
2023-03-25T15:43:18.977Z,13.80
2023-03-25T15:44:11.511Z,13.70
2023-03-25T15:44:58.104Z,13.70
2023-03-25T15:46:01.572Z,13.70
2023-03-25T15:46:59.551Z,13.80
2023-03-25T15:47:49.059Z,13.70
2023-03-25T15:48:39.647Z,16.20
2023-03-25T15:49:41.212Z,13.70
2023-03-25T15:50:35.522Z,13.70
2023-03-25T15:51:36.431Z,13.70
2023-03-25T15:52:41.849Z,13.80
2023-03-25T15:53:41.733Z,13.70
2023-03-25T15:54:27.960Z,13.70
2023-03-25T15:55:12.522Z,13.70
2023-03-25T15:55:53.608Z,13.70
2023-03-25T15:56:34.254Z,13.70
2023-03-25T15:57:34.902Z,13.70
2023-03-25T15:58:37.383Z,13.70
2023-03-25T15:59:46.049Z,13.70
2023-03-25T16:00:29.596Z,13.70
2023-03-25T16:01:24.885Z,13.70
2023-03-25T16:01:57.748Z,13.70
2023-03-25T16:02:52.077Z,13.70
2023-03-25T16:03:29.414Z,13.70
2023-03-25T16:04:10.489Z,13.80
2023-03-25T16:04:47.239Z,13.70
2023-03-25T16:05:20.598Z,14.00
2023-03-25T16:05:57.081Z,13.70
2023-03-25T16:06:31.583Z,14.00
2023-03-25T16:07:06.973Z,14.60
2023-03-25T16:07:42.224Z,13.80
2023-03-25T16:08:41.314Z,13.70
2023-03-25T16:09:26.022Z,14.70
2023-03-25T16:10:13.107Z,14.40
2023-03-25T16:10:46.411Z,13.80
2023-03-25T16:11:21.102Z,14.20
2023-03-25T16:12:01.937Z,14.30
2023-03-25T16:12:33.814Z,13.70
2023-03-25T16:13:16.506Z,13.70
2023-03-25T16:14:02.228Z,13.80
2023-03-25T16:14:34.076Z,14.80
2023-03-25T16:15:07.194Z,13.80
2023-03-25T16:15:40.943Z,13.80
2023-03-25T16:16:16.706Z,14.60
2023-03-25T16:16:55.033Z,14.80
2023-03-25T16:17:34.250Z,13.80
2023-03-25T16:18:09.690Z,13.80
2023-03-25T16:18:44.873Z,14.50
2023-03-25T16:19:21.831Z,14.80
2023-03-25T16:19:56.346Z,14.50
2023-03-25T16:20:31.876Z,13.80
2023-03-25T16:21:03.940Z,13.80
2023-03-25T16:21:36.413Z,13.80
2023-03-25T16:22:19.950Z,14.70
2023-03-25T16:22:57.513Z,13.80
2023-03-25T16:23:30.695Z,15.00
2023-03-25T16:24:09.091Z,14.30
2023-03-25T16:24:41.321Z,13.80
2023-03-25T16:25:20.973Z,13.80
2023-03-25T16:25:55.212Z,13.80
2023-03-25T16:26:57.428Z,13.80
2023-03-25T16:27:36.913Z,14.10
2023-03-25T16:28:17.625Z,13.80
2023-03-25T16:28:49.357Z,13.80
2023-03-25T16:29:23.671Z,13.80
2023-03-25T16:29:55.722Z,13.80
2023-03-25T16:30:33.460Z,14.90
2023-03-25T16:31:05.818Z,13.80
2023-03-25T16:31:42.713Z,13.80
2023-03-25T16:32:20.136Z,14.50
2023-03-25T16:32:52.518Z,13.80
2023-03-25T16:33:30.416Z,14.60
2023-03-25T16:34:02.219Z,14.10
2023-03-25T16:34:40.812Z,13.80
2023-03-25T16:35:24.838Z,14.00
2023-03-25T16:35:59.432Z,13.80
2023-03-25T16:37:06.163Z,13.80
2023-03-25T16:37:39.869Z,13.80
2023-03-25T16:38:21.586Z,15.00
2023-03-25T16:38:53.471Z,13.80
2023-03-25T16:39:26.178Z,13.80
2023-03-25T16:39:58.461Z,13.80
2023-03-25T16:40:50.262Z,14.70
2023-03-25T16:41:22.240Z,14.20
2023-03-25T16:42:02.296Z,14.60
2023-03-25T16:42:35.395Z,14.40
2023-03-25T16:43:17.084Z,13.80
2023-03-25T16:43:48.963Z,14.70
2023-03-25T16:44:23.790Z,14.50
2023-03-25T16:44:55.890Z,14.30
2023-03-25T16:45:27.756Z,14.30
2023-03-25T16:46:03.343Z,13.70
2023-03-25T16:46:35.594Z,13.80
2023-03-25T16:47:07.623Z,13.80
2023-03-25T16:47:39.584Z,13.80
2023-03-25T16:48:21.860Z,14.20
2023-03-25T16:48:54.760Z,13.80
2023-03-25T16:49:31.806Z,13.80
2023-03-25T16:50:04.759Z,13.80
2023-03-25T16:50:38.056Z,13.80
2023-03-25T16:51:12.818Z,13.80
2023-03-25T16:51:46.420Z,14.40
2023-03-25T16:52:26.446Z,14.20
2023-03-25T16:53:02.730Z,14.60
2023-03-25T16:53:39.847Z,13.80
2023-03-25T16:54:23.317Z,13.80
2023-03-25T16:54:54.980Z,13.70
2023-03-25T16:55:31.458Z,13.70
2023-03-25T16:56:20.225Z,14.90
2023-03-25T16:56:53.286Z,13.80
2023-03-25T16:57:28.006Z,14.60
2023-03-25T16:58:02.022Z,14.60
2023-03-25T16:58:37.527Z,14.20
2023-03-25T16:59:27.438Z,13.70
2023-03-25T17:00:17.199Z,13.80
2023-03-25T17:00:52.396Z,13.70
2023-03-25T17:01:25.324Z,14.40
2023-03-25T17:01:59.835Z,14.80
2023-03-25T17:02:41.751Z,13.70
2023-03-25T17:03:21.199Z,13.80
2023-03-25T17:04:18.940Z,13.80
2023-03-25T17:04:50.971Z,13.70
2023-03-25T17:05:26.519Z,14.30
2023-03-25T17:06:08.744Z,13.70
2023-03-25T17:06:43.198Z,13.70
2023-03-25T17:07:20.936Z,14.60
2023-03-25T17:08:10.471Z,13.80
2023-03-25T17:08:42.841Z,13.50
2023-03-25T17:09:21.476Z,14.30
2023-03-25T17:09:57.399Z,14.70
2023-03-25T17:10:32.548Z,13.70
2023-03-25T17:11:07.649Z,14.10
2023-03-25T17:11:39.553Z,13.70
2023-03-25T17:12:19.148Z,14.90
2023-03-25T17:12:58.348Z,14.40
2023-03-25T17:13:42.392Z,13.70
2023-03-25T17:14:21.692Z,13.70
2023-03-25T17:15:07.001Z,14.70
2023-03-25T17:15:39.837Z,13.70
2023-03-25T17:16:12.932Z,13.70
2023-03-25T17:16:48.287Z,14.90
2023-03-25T17:17:23.121Z,14.60
2023-03-25T17:18:01.162Z,14.50
2023-03-25T17:18:36.552Z,13.60
2023-03-25T17:19:12.981Z,14.80
2023-03-25T17:19:48.240Z,14.30
2023-03-25T17:20:42.537Z,14.50
2023-03-25T17:21:32.867Z,13.60
2023-03-25T17:22:38.491Z,13.60
2023-03-25T17:23:49.390Z,13.60
2023-03-25T17:24:23.919Z,13.60
2023-03-25T17:25:16.163Z,14.50
2023-03-25T17:25:59.208Z,13.80
2023-03-25T17:26:54.143Z,13.60
2023-03-25T17:27:38.590Z,14.50
2023-03-25T17:28:19.798Z,14.60
2023-03-25T17:28:54.658Z,13.60
2023-03-25T17:29:26.566Z,13.60
2023-03-25T17:29:59.755Z,14.00
2023-03-25T17:30:42.443Z,13.70
2023-03-25T17:31:18.600Z,13.90
2023-03-25T17:31:59.130Z,13.50
2023-03-25T17:32:44.731Z,13.60
2023-03-25T17:33:35.662Z,13.60
2023-03-25T17:34:11.991Z,13.50
2023-03-25T17:34:45.475Z,13.50
2023-03-25T17:35:24.081Z,14.10
2023-03-25T17:35:57.255Z,13.50
2023-03-25T17:36:31.595Z,13.60
2023-03-25T17:37:03.919Z,14.00
2023-03-25T17:37:36.430Z,13.50
2023-03-25T17:38:19.503Z,13.50
2023-03-25T17:38:56.054Z,14.10
2023-03-25T17:39:32.077Z,14.50
2023-03-25T17:40:13.184Z,14.80
2023-03-25T17:40:45.095Z,13.50
2023-03-25T17:41:19.368Z,13.40
2023-03-25T17:42:06.818Z,13.50
2023-03-25T17:42:40.921Z,13.50
2023-03-25T17:43:19.836Z,13.90
2023-03-25T17:43:55.636Z,13.50
2023-03-25T17:44:34.935Z,14.20
2023-03-25T17:45:12.310Z,13.40
2023-03-25T17:45:46.591Z,13.40
2023-03-25T17:46:27.972Z,13.90
2023-03-25T17:46:59.918Z,13.40
2023-03-25T17:47:31.694Z,13.40
2023-03-25T17:48:03.497Z,13.40
2023-03-25T17:48:36.635Z,13.40
2023-03-25T17:49:19.899Z,13.40
2023-03-25T17:49:52.595Z,13.40
2023-03-25T17:50:27.451Z,13.40
2023-03-25T17:51:02.446Z,13.40
2023-03-25T17:51:34.158Z,14.20
2023-03-25T17:52:08.223Z,13.60
2023-03-25T17:52:40.044Z,14.00
2023-03-25T17:53:11.735Z,14.20
2023-03-25T17:53:43.553Z,13.40
2023-03-25T17:54:15.686Z,13.40
2023-03-25T17:54:47.430Z,13.40
2023-03-25T17:55:19.249Z,13.90
2023-03-25T17:55:51.926Z,13.30
2023-03-25T17:56:28.453Z,14.30
2023-03-25T17:57:00.619Z,13.30
2023-03-25T17:57:32.373Z,14.10
2023-03-25T17:58:04.669Z,13.80
2023-03-25T17:58:36.466Z,14.20
2023-03-25T17:59:16.448Z,13.40
2023-03-25T17:59:48.277Z,13.30
2023-03-25T18:00:20.693Z,13.30
2023-03-25T18:00:53.103Z,13.30
2023-03-25T18:01:27.060Z,13.50
2023-03-25T18:01:58.937Z,13.40
2023-03-25T18:02:31.023Z,13.20
2023-03-25T18:03:10.416Z,13.30
2023-03-25T18:03:42.246Z,13.20
2023-03-25T18:04:15.477Z,14.60
2023-03-25T18:04:47.729Z,13.20
2023-03-25T18:05:19.540Z,13.90
2023-03-25T18:05:54.081Z,13.20
2023-03-25T18:06:26.473Z,13.50
2023-03-25T18:06:58.215Z,13.20
2023-03-25T18:07:29.974Z,13.20
2023-03-25T18:08:03.266Z,13.20
2023-03-25T18:08:35.083Z,13.30
2023-03-25T18:09:19.429Z,13.20
2023-03-25T18:09:52.165Z,14.00
2023-03-25T18:10:26.000Z,13.10
2023-03-25T18:10:58.843Z,14.20
2023-03-25T18:11:30.957Z,13.10
2023-03-25T18:12:03.200Z,13.90
2023-03-25T18:12:35.204Z,13.20
2023-03-25T18:13:07.251Z,13.90
2023-03-25T18:13:45.533Z,13.10
2023-03-25T18:14:17.355Z,12.60
2023-03-25T18:14:49.857Z,13.20
2023-03-25T18:15:21.674Z,13.10
2023-03-25T18:15:55.270Z,13.10
2023-03-25T18:16:27.200Z,13.10
2023-03-25T18:16:59.128Z,13.10
2023-03-25T18:17:31.082Z,13.00
2023-03-25T18:18:04.505Z,13.00
2023-03-25T18:18:36.500Z,13.00
2023-03-25T18:19:16.188Z,13.00
2023-03-25T18:19:48.014Z,13.00
2023-03-25T18:20:33.960Z,13.00
2023-03-25T18:21:09.590Z,13.00
2023-03-25T18:21:41.596Z,13.30
2023-03-25T18:22:19.635Z,13.00
2023-03-25T18:22:54.673Z,13.00
2023-03-25T18:23:28.309Z,13.90
2023-03-25T18:24:00.140Z,13.30
2023-03-25T18:24:33.753Z,13.70
2023-03-25T18:25:06.150Z,12.90
2023-03-25T18:25:37.939Z,12.90
2023-03-25T18:26:15.305Z,12.90
2023-03-25T18:26:47.622Z,13.90
2023-03-25T18:27:21.072Z,13.20
2023-03-25T18:27:57.469Z,12.90
2023-03-25T18:28:29.369Z,13.80
2023-03-25T18:29:02.160Z,12.90
2023-03-25T18:29:34.072Z,12.90
2023-03-25T18:30:29.480Z,12.90
2023-03-25T18:31:01.327Z,12.90
2023-03-25T18:31:33.068Z,12.90
2023-03-25T18:32:05.078Z,13.50
2023-03-25T18:32:36.841Z,12.90
2023-03-25T18:33:08.758Z,14.00
2023-03-25T18:33:41.281Z,12.80
2023-03-25T18:34:14.549Z,12.80
2023-03-25T18:34:46.671Z,13.10
2023-03-25T18:35:18.774Z,11.20
2023-03-25T18:35:52.539Z,12.80
2023-03-25T18:36:24.490Z,12.80
2023-03-25T18:36:56.418Z,12.80
2023-03-25T18:37:28.109Z,13.20
2023-03-25T18:38:00.230Z,12.80
2023-03-25T18:38:32.011Z,12.80
2023-03-25T18:39:04.469Z,13.90
2023-03-25T18:39:36.187Z,12.70
2023-03-25T18:40:23.329Z,12.70
2023-03-25T18:40:57.239Z,12.70
2023-03-25T18:41:29.036Z,13.60
2023-03-25T18:42:01.095Z,12.70
2023-03-25T18:42:33.284Z,13.00
2023-03-25T18:43:05.020Z,13.60
2023-03-25T18:43:37.077Z,12.70
2023-03-25T18:44:09.518Z,12.70